Time;durP1;ratioP1;P1;durP2;ratioP2;P2;SDS_P1;SDS_P2;PMS_P1;PMS_P2;Temp;Humidity;BMP_temperature;BMP_pressure;BME280_temperature;BME280_humidity;BME280_pressure;Samples;Min_cycle;Max_cycle;Signal;HPM_P1;HPM_P2
2022/04/07 00:03:41;;;;;;;25.40;13.30;;;;;;;10.03;59.45;97421.95;233523;1217;139115;-58
2022/04/07 00:08:44;;;;;;;23.30;13.40;;;;;;;9.98;59.40;97419.40;233511;1217;138837;-60
2022/04/07 00:13:47;;;;;;;24.70;14.30;;;;;;;9.91;59.35;97409.69;233462;1217;141109;-58
2022/04/07 00:18:50;;;;;;;26.80;13.60;;;;;;;9.81;59.55;97400.67;233492;1217;139561;-57
2022/04/07 00:23:53;;;;;;;24.50;13.70;;;;;;;9.75;59.86;97392.52;233636;1217;138947;-59
2022/04/07 00:28:57;;;;;;;28.60;14.00;;;;;;;9.72;59.99;97384.91;233472;1217;138953;-59
2022/04/07 00:34:00;;;;;;;26.50;14.30;;;;;;;9.69;60.05;97378.83;233376;1217;139246;-58
2022/04/07 00:39:03;;;;;;;25.30;13.70;;;;;;;9.64;60.18;97379.55;233329;1217;139075;-59
2022/04/07 00:44:08;;;;;;;31.30;16.10;;;;;;;9.61;60.30;97377.70;233411;1217;140076;-57
2022/04/07 00:49:12;;;;;;;24.20;14.20;;;;;;;9.67;60.68;97369.44;233469;1217;139880;-58
2022/04/07 00:54:16;;;;;;;31.10;15.20;;;;;;;9.74;60.83;97368.63;233527;1217;140793;-59
2022/04/07 00:59:22;;;;;;;30.40;16.90;;;;;;;9.83;60.85;97360.98;233296;1217;138907;-57
2022/04/07 01:04:25;;;;;;;36.70;18.20;;;;;;;9.88;60.93;97357.70;233532;1216;139245;-59
2022/04/07 01:09:30;;;;;;;31.50;18.00;;;;;;;9.95;60.77;97352.67;232425;1217;138789;-59
2022/04/07 01:14:33;;;;;;;34.60;17.10;;;;;;;9.98;60.78;97347.97;233297;1217;138910;-57
2022/04/07 01:19:36;;;;;;;30.60;16.60;;;;;;;9.95;60.68;97346.13;233413;1217;138923;-58
2022/04/07 01:24:39;;;;;;;33.40;16.30;;;;;;;9.90;60.86;97341.55;233410;1217;140123;-60
2022/04/07 01:29:43;;;;;;;29.80;16.20;;;;;;;9.91;60.86;97336.19;233573;1217;139596;-58
2022/04/07 01:34:46;;;;;;;33.30;16.70;;;;;;;9.89;60.94;97325.49;233497;1217;139330;-58
2022/04/07 01:39:51;;;;;;;27.30;15.20;;;;;;;9.87;60.87;97322.04;233339;1217;139753;-58
2022/04/07 01:45:00;;;;;;;32.90;15.50;;;;;;;9.86;61.23;97318.20;233238;1217;139083;-58
2022/04/07 01:50:06;;;;;;;20.90;12.80;;;;;;;9.85;61.17;97320.40;233223;1217;140054;-58
2022/04/07 01:55:10;;;;;;;25.20;12.80;;;;;;;9.92;61.22;97321.52;233241;1217;138969;-59
2022/04/07 02:00:14;;;;;;;21.90;12.70;;;;;;;9.99;61.50;97332.83;232844;1217;140135;-57
2022/04/07 02:05:17;;;;;;;20.20;11.60;;;;;;;9.98;61.13;97338.75;233342;1217;138991;-60
2022/04/07 02:10:23;;;;;;;17.20;11.10;;;;;;;10.00;61.31;97344.92;233348;1217;139145;-60
2022/04/07 02:15:26;;;;;;;21.00;11.50;;;;;;;10.10;61.18;97335.45;233270;1217;139410;-59
2022/04/07 02:20:29;;;;;;;19.40;10.90;;;;;;;10.11;60.99;97331.41;233198;1217;138972;-61
2022/04/07 02:25:32;;;;;;;13.00;8.20;;;;;;;10.08;60.67;97332.77;233318;1217;139165;-60
2022/04/07 02:30:35;;;;;;;10.90;8.00;;;;;;;10.16;60.95;97329.96;233430;1217;138538;-60
2022/04/07 02:35:38;;;;;;;12.00;8.20;;;;;;;10.32;60.97;97331.69;233336;1217;139674;-60
2022/04/07 02:40:41;;;;;;;11.60;7.60;;;;;;;10.52;61.01;97331.23;233432;1217;140774;-58
2022/04/07 02:45:44;;;;;;;14.30;7.90;;;;;;;10.72;60.76;97328.30;233264;1217;139076;-61
2022/04/07 02:50:47;;;;;;;14.30;8.40;;;;;;;10.91;60.45;97324.54;233330;1217;139532;-61
2022/04/07 02:55:50;;;;;;;14.90;8.30;;;;;;;11.03;59.87;97322.86;233201;1216;138936;-60
2022/04/07 03:00:53;;;;;;;16.40;8.80;;;;;;;11.13;59.73;97327.95;233216;1217;139028;-59
2022/04/07 03:05:56;;;;;;;23.30;11.80;;;;;;;11.16;59.49;97330.19;233349;1217;139484;-59
2022/04/07 03:11:03;;;;;;;20.70;11.50;;;;;;;10.97;58.93;97338.36;233211;1217;141057;-58
2022/04/07 03:16:07;;;;;;;20.30;13.00;;;;;;;10.75;58.95;97341.09;233208;1219;139386;-60
2022/04/07 03:21:10;;;;;;;197.80;140.70;;;;;;;10.59;59.35;97339.26;233271;1217;139496;-59
2022/04/07 03:26:13;;;;;;;31.20;22.20;;;;;;;10.52;59.46;97338.44;233359;1216;139423;-60
2022/04/07 03:31:16;;;;;;;21.00;10.80;;;;;;;10.46;59.50;97332.77;233331;1217;139195;-58
2022/04/07 03:36:19;;;;;;;18.90;10.90;;;;;;;10.40;59.70;97335.05;233272;1217;140163;-58
2022/04/07 03:41:22;;;;;;;29.40;13.10;;;;;;;10.41;60.07;97341.09;233429;1217;139743;-58
2022/04/07 03:46:25;;;;;;;25.60;11.30;;;;;;;10.49;59.89;97335.96;233507;1217;139065;-58
2022/04/07 03:51:28;;;;;;;20.80;10.80;;;;;;;10.45;59.87;97331.66;233258;1217;139572;-59
2022/04/07 03:56:31;;;;;;;23.00;12.20;;;;;;;10.44;59.89;97325.71;233179;1217;139525;-60
2022/04/07 04:01:35;;;;;;;19.10;11.40;;;;;;;10.40;60.24;97323.06;233472;1217;139578;-61
2022/04/07 04:06:38;;;;;;;20.40;10.50;;;;;;;10.35;59.82;97317.05;233335;1217;138911;-57
2022/04/07 04:11:41;;;;;;;27.10;11.20;;;;;;;10.30;59.99;97324.13;233230;1217;139481;-60
2022/04/07 04:16:44;;;;;;;20.50;11.70;;;;;;;10.25;60.31;97324.02;233372;1217;139530;-59
2022/04/07 04:21:47;;;;;;;35.60;19.90;;;;;;;10.25;60.77;97325.43;233254;1217;139283;-60
2022/04/07 04:26:53;;;;;;;23.20;12.90;;;;;;;10.33;60.50;97336.63;233390;1217;139609;-60
2022/04/07 04:31:56;;;;;;;26.70;13.00;;;;;;;10.39;60.68;97328.64;233386;1217;138975;-57
2022/04/07 04:36:59;;;;;;;29.90;12.80;;;;;;;10.40;60.73;97328.22;233249;1217;139045;-60
2022/04/07 04:42:12;;;;;;;30.80;12.00;;;;;;;10.38;60.78;97340.74;233373;1217;139414;-58
2022/04/07 04:47:17;;;;;;;23.60;12.30;;;;;;;10.45;60.74;97344.75;233341;1217;140517;-59
2022/04/07 04:52:20;;;;;;;22.60;12.10;;;;;;;10.60;60.85;97346.25;233369;1216;140463;-58
2022/04/07 04:57:23;;;;;;;25.40;12.00;;;;;;;10.74;60.67;97339.90;233402;1217;138933;-58
2022/04/07 05:02:26;;;;;;;27.10;13.20;;;;;;;10.85;60.59;97331.73;233347;1217;139608;-60
2022/04/07 05:07:30;;;;;;;24.70;12.90;;;;;;;10.96;60.32;97320.52;233226;1217;139410;-59
2022/04/07 05:12:33;;;;;;;22.50;12.50;;;;;;;11.03;60.51;97316.10;233342;1217;139283;-59
2022/04/07 05:17:36;;;;;;;20.20;11.80;;;;;;;11.11;60.47;97318.05;233331;1217;139288;-59
2022/04/07 05:22:39;;;;;;;21.90;13.10;;;;;;;11.19;60.15;97312.90;233354;1217;141223;-58
2022/04/07 05:27:45;;;;;;;22.80;12.10;;;;;;;11.29;60.04;97314.27;233170;1217;139569;-58
2022/04/07 05:32:48;;;;;;;19.90;12.00;;;;;;;11.39;59.76;97309.73;233135;1217;139614;-58
2022/04/07 05:37:57;;;;;;;23.10;12.20;;;;;;;11.50;59.89;97310.20;233219;1217;139143;-59
2022/04/07 05:43:01;;;;;;;24.10;12.50;;;;;;;11.65;59.76;97311.81;233387;1217;139665;-57
2022/04/07 05:48:05;;;;;;;22.10;11.80;;;;;;;11.76;59.55;97311.98;233288;1217;139252;-59
2022/04/07 05:53:08;;;;;;;21.90;11.70;;;;;;;11.86;59.67;97309.64;233721;1217;139192;-58
2022/04/07 05:58:13;;;;;;;20.40;11.60;;;;;;;11.96;59.31;97298.73;233442;1217;140062;-60
2022/04/07 06:03:16;;;;;;;14.30;9.40;;;;;;;12.06;59.82;97286.58;233333;1217;141767;-59
2022/04/07 06:08:20;;;;;;;16.80;10.00;;;;;;;12.15;59.55;97269.70;233239;1218;139379;-59
2022/04/07 06:13:23;;;;;;;16.10;9.10;;;;;;;12.26;59.19;97264.72;233291;1217;141808;-58
2022/04/07 06:18:27;;;;;;;13.20;7.80;;;;;;;12.33;59.39;97259.96;233389;1217;139349;-59
2022/04/07 06:23:32;;;;;;;10.60;7.70;;;;;;;12.44;59.02;97259.19;233347;1217;139477;-60
2022/04/07 06:28:35;;;;;;;9.60;6.70;;;;;;;12.53;58.69;97257.77;233421;1217;138632;-57
2022/04/07 06:33:38;;;;;;;10.60;6.50;;;;;;;12.64;58.68;97264.15;233233;1218;138973;-58
2022/04/07 06:39:03;;;;;;;11.00;6.20;;;;;;;12.75;58.56;97269.70;233262;1217;139169;-59
2022/04/07 06:44:06;;;;;;;11.90;6.60;;;;;;;12.86;58.66;97255.41;233300;1217;138946;-57
2022/04/07 06:49:09;;;;;;;10.40;6.00;;;;;;;12.96;58.25;97258.53;233332;1217;139659;-60
2022/04/07 06:54:12;;;;;;;10.90;5.80;;;;;;;13.01;58.14;97257.95;233294;1217;139579;-57
2022/04/07 06:59:15;;;;;;;8.90;5.10;;;;;;;13.07;57.62;97251.71;233374;1217;139674;-59
2022/04/07 07:04:18;;;;;;;8.40;4.60;;;;;;;13.17;57.50;97247.29;233028;1217;138958;-61
2022/04/07 07:09:21;;;;;;;8.00;3.70;;;;;;;13.36;57.65;97242.23;233271;1217;139104;-56
2022/04/07 07:14:24;;;;;;;7.70;4.30;;;;;;;13.54;57.70;97240.79;233341;1217;140380;-58
2022/04/07 07:19:28;;;;;;;6.90;3.30;;;;;;;13.74;57.13;97240.52;233353;1217;138824;-57
2022/04/07 07:24:31;;;;;;;8.40;3.30;;;;;;;13.91;56.75;97231.73;233317;1217;139291;-59
2022/04/07 07:29:34;;;;;;;5.40;2.40;;;;;;;14.06;56.42;97234.98;233409;1217;140210;-59
2022/04/07 07:34:37;;;;;;;6.20;2.60;;;;;;;14.20;56.21;97224.23;233464;1217;138757;-60
2022/04/07 07:39:40;;;;;;;4.80;1.80;;;;;;;14.38;55.84;97227.44;233162;1219;140433;-59
2022/04/07 07:44:43;;;;;;;4.70;1.50;;;;;;;14.45;55.55;97219.34;233317;1217;138904;-59
2022/04/07 07:49:46;;;;;;;4.20;1.60;;;;;;;14.61;55.05;97224.52;233288;1217;138965;-59
2022/04/07 07:54:49;;;;;;;2.50;1.50;;;;;;;14.71;54.74;97227.39;233392;1217;138676;-58
2022/04/07 07:59:52;;;;;;;2.40;1.00;;;;;;;14.79;54.42;97223.08;233378;1217;139279;-58
2022/04/07 08:04:55;;;;;;;7.00;1.30;;;;;;;14.94;54.05;97226.67;233369;1217;140168;-62
2022/04/07 08:09:58;;;;;;;3.50;1.00;;;;;;;15.08;53.55;97230.67;233223;1217;138849;-58
2022/04/07 08:15:01;;;;;;;2.70;1.00;;;;;;;15.10;52.88;97225.16;233435;1217;139370;-59
2022/04/07 08:20:07;;;;;;;1.80;1.10;;;;;;;15.12;52.51;97226.94;233288;1217;139067;-58
2022/04/07 08:25:10;;;;;;;1.70;0.80;;;;;;;15.20;52.23;97232.48;233104;1217;139409;-58
2022/04/07 08:30:13;;;;;;;1.50;1.00;;;;;;;15.29;52.05;97221.31;233416;1217;139895;-58
2022/04/07 08:35:16;;;;;;;2.40;1.20;;;;;;;15.36;51.66;97224.95;233273;1217;139046;-58
2022/04/07 08:40:21;;;;;;;2.10;1.20;;;;;;;15.44;51.44;97225.61;232936;1216;139590;-58
2022/04/07 08:45:25;;;;;;;3.80;1.30;;;;;;;15.44;51.14;97214.70;233201;1219;139221;-58
2022/04/07 08:50:34;;;;;;;2.00;1.40;;;;;;;15.48;50.90;97216.72;233413;1217;139082;-59
2022/04/07 08:55:37;;;;;;;2.30;1.20;;;;;;;15.49;50.78;97212.14;233319;1217;139407;-59
2022/04/07 09:00:41;;;;;;;2.60;1.40;;;;;;;15.56;50.76;97203.11;233217;1217;139494;-59
2022/04/07 09:05:58;;;;;;;7.00;3.20;;;;;;;15.68;50.76;97202.90;233256;1216;139476;-58
2022/04/07 09:11:03;;;;;;;6.00;1.70;;;;;;;15.81;50.13;97194.40;233285;1217;139051;-60
2022/04/07 09:16:12;;;;;;;2.20;1.40;;;;;;;15.89;50.16;97190.65;233334;1217;139305;-59
2022/04/07 09:21:23;;;;;;;3.70;1.50;;;;;;;16.04;50.10;97192.70;233188;1217;139331;-58
2022/04/07 09:26:28;;;;;;;4.30;1.70;;;;;;;16.09;49.64;97184.63;233289;1217;139439;-59
2022/04/07 09:31:36;;;;;;;3.80;1.30;;;;;;;16.08;49.54;97182.38;233211;1217;138997;-58
2022/04/07 09:36:39;;;;;;;4.20;1.30;;;;;;;16.02;49.02;97180.80;233264;1217;139342;-59
2022/04/07 09:41:46;;;;;;;3.30;1.20;;;;;;;16.03;48.98;97169.89;233218;1217;138859;-60
2022/04/07 09:46:50;;;;;;;1.60;1.30;;;;;;;16.12;48.79;97162.00;233358;1217;139233;-59
2022/04/07 09:51:58;;;;;;;4.80;1.60;;;;;;;16.12;48.85;97150.98;233253;1217;139108;-57
2022/04/07 09:57:03;;;;;;;2.60;1.60;;;;;;;16.13;48.72;97143.25;233457;1217;139398;-60
2022/04/07 10:02:09;;;;;;;2.70;1.50;;;;;;;16.16;48.87;97142.73;233110;1218;140069;-65
2022/04/07 10:07:13;;;;;;;3.60;1.80;;;;;;;16.20;48.63;97136.48;233240;1217;139154;-59
2022/04/07 10:12:17;;;;;;;4.20;1.50;;;;;;;16.27;48.75;97135.67;233188;1217;139242;-59
2022/04/07 10:17:22;;;;;;;2.30;1.40;;;;;;;16.25;48.47;97131.63;233159;1217;139354;-58
2022/04/07 10:22:59;;;;;;;3.80;1.60;;;;;;;16.14;48.33;97110.89;233476;1217;139820;-58
2022/04/07 10:28:07;;;;;;;4.20;1.70;;;;;;;16.12;48.18;97112.75;233284;1217;139132;-59
2022/04/07 10:33:33;;;;;;;4.10;1.70;;;;;;;16.19;48.72;97104.46;233285;1217;138867;-58
2022/04/07 10:38:41;;;;;;;2.10;1.30;;;;;;;16.33;48.68;97092.61;233281;1217;138861;-59
2022/04/07 10:44:11;;;;;;;2.10;1.40;;;;;;;16.50;48.50;97088.98;233201;1217;139103;-61
2022/04/07 10:49:24;;;;;;;3.80;1.60;;;;;;;16.76;48.55;97074.48;233325;1217;138822;-60
2022/04/07 10:54:28;;;;;;;80.70;58.00;;;;;;;16.80;47.82;97073.67;233359;1217;139371;-57
2022/04/07 10:59:34;;;;;;;10.50;4.90;;;;;;;16.88;47.96;97066.63;233128;1217;139972;-58
2022/04/07 11:04:56;;;;;;;5.30;2.00;;;;;;;16.86;47.93;97053.78;233376;1217;139618;-59
2022/04/07 11:10:00;;;;;;;3.90;1.90;;;;;;;16.77;47.82;97033.46;233265;1217;138814;-57
2022/04/07 11:15:03;;;;;;;4.80;1.90;;;;;;;16.71;47.83;97031.33;233352;1217;141398;-60
2022/04/07 11:20:35;;;;;;;3.20;2.10;;;;;;;16.75;47.86;97033.35;233221;1217;138944;-60
2022/04/07 11:25:41;;;;;;;111.50;76.00;;;;;;;16.73;48.01;97019.11;233014;1217;138893;-59
2022/04/07 11:30:46;;;;;;;14.70;10.40;;;;;;;16.85;48.40;97022.02;233116;1217;139156;-60
2022/04/07 11:36:07;;;;;;;4.70;2.50;;;;;;;17.05;48.91;97017.79;233148;1217;139915;-59
2022/04/07 11:41:14;;;;;;;6.10;2.40;;;;;;;17.33;49.52;97016.51;233332;1217;139102;-59
2022/04/07 11:46:30;;;;;;;3.80;1.80;;;;;;;17.48;48.10;97007.14;233409;1217;139169;-59
2022/04/07 11:51:36;;;;;;;3.50;1.80;;;;;;;17.52;47.89;96994.36;233257;1217;139036;-60
2022/04/07 11:56:39;;;;;;;3.20;1.70;;;;;;;17.59;47.63;96982.70;233421;1217;139583;-60
2022/04/07 12:01:45;;;;;;;3.00;1.50;;;;;;;17.67;47.42;96980.21;233237;1217;139348;-60
2022/04/07 12:06:48;;;;;;;2.50;1.60;;;;;;;17.75;47.43;96963.14;233206;1217;139058;-55
2022/04/07 12:11:53;;;;;;;3.90;1.80;;;;;;;17.90;47.35;96950.91;233382;1217;139397;-56
2022/04/07 12:16:56;;;;;;;3.40;1.40;;;;;;;18.13;47.47;96950.63;233486;1215;138568;-57
2022/04/07 12:21:59;;;;;;;2.10;1.40;;;;;;;18.43;46.98;96940.47;233181;1217;138713;-57
2022/04/07 12:27:08;;;;;;;2.60;1.30;;;;;;;18.81;46.57;96931.93;233297;1217;140014;-57
2022/04/07 12:32:11;;;;;;;2.30;1.50;;;;;;;19.27;46.19;96918.17;233268;1217;140935;-55
2022/04/07 12:37:36;;;;;;;5.50;1.80;;;;;;;19.64;45.57;96907.13;233138;1219;139113;-60
2022/04/07 12:42:50;;;;;;;4.40;1.80;;;;;;;19.98;44.94;96904.72;233112;1217;139413;-58
2022/04/07 12:48:10;;;;;;;8.90;6.60;;;;;;;20.00;44.28;96896.78;233097;1217;139029;-58
2022/04/07 12:53:34;;;;;;;2.90;1.80;;;;;;;19.99;43.70;96882.83;233181;1217;139325;-56
2022/04/07 12:58:37;;;;;;;3.80;1.80;;;;;;;20.24;43.61;96861.91;233344;1217;139431;-56
2022/04/07 13:03:51;;;;;;;2.00;1.50;;;;;;;20.60;43.03;96858.50;233264;1217;139107;-57
2022/04/07 13:08:54;;;;;;;9.50;1.60;;;;;;;20.84;42.33;96845.88;233184;1216;138899;-57
2022/04/07 13:13:58;;;;;;;3.70;1.30;;;;;;;21.08;41.81;96838.22;233089;1217;138875;-58
2022/04/07 13:19:02;;;;;;;3.20;1.20;;;;;;;21.17;40.92;96833.52;233238;1217;138913;-58
2022/04/07 13:24:05;;;;;;;2.30;1.00;;;;;;;21.14;40.42;96816.48;233166;1217;139687;-57
2022/04/07 13:29:08;;;;;;;3.60;1.20;;;;;;;21.04;40.01;96813.56;233278;1217;138762;-57
2022/04/07 13:34:12;;;;;;;2.10;1.00;;;;;;;20.87;39.77;96800.96;233259;1217;138888;-56
2022/04/07 13:39:15;;;;;;;3.30;1.00;;;;;;;20.94;39.94;96790.02;233185;1217;141640;-58
2022/04/07 13:44:18;;;;;;;3.20;0.80;;;;;;;21.23;40.07;96785.54;233137;1217;138856;-58
2022/04/07 13:49:22;;;;;;;3.30;1.20;;;;;;;21.10;39.16;96778.16;233268;1215;138928;-58
2022/04/07 13:54:25;;;;;;;11.30;5.40;;;;;;;20.86;39.11;96766.15;233212;1217;139136;-60
2022/04/07 13:59:28;;;;;;;3.10;1.30;;;;;;;20.98;39.34;96754.36;233431;1217;139778;-60
2022/04/07 14:04:31;;;;;;;3.60;1.00;;;;;;;21.11;39.26;96747.61;233353;1217;139079;-60
2022/04/07 14:09:34;;;;;;;1.60;0.90;;;;;;;21.31;39.05;96739.31;233383;1216;138533;-60
2022/04/07 14:14:37;;;;;;;1.60;1.00;;;;;;;21.24;38.27;96725.31;233115;1217;139257;-59
2022/04/07 14:19:40;;;;;;;2.30;1.10;;;;;;;20.97;38.23;96705.06;233073;1217;139229;-60
2022/04/07 14:24:43;;;;;;;2.30;1.10;;;;;;;20.65;38.26;96694.40;233119;1217;139155;-57
2022/04/07 14:29:46;;;;;;;3.00;1.40;;;;;;;20.29;38.30;96679.54;233174;1217;139772;-59
2022/04/07 14:34:49;;;;;;;3.30;1.20;;;;;;;20.02;38.58;96671.27;233325;1217;141826;-57
2022/04/07 14:39:52;;;;;;;2.80;1.20;;;;;;;19.77;38.51;96660.33;233130;1217;139803;-59
2022/04/07 14:44:55;;;;;;;2.40;1.20;;;;;;;19.59;38.52;96655.95;233173;1217;139220;-59
2022/04/07 14:49:58;;;;;;;2.20;1.10;;;;;;;19.45;38.36;96647.95;233264;1217;138935;-59
2022/04/07 14:55:01;;;;;;;2.20;1.10;;;;;;;19.28;38.35;96638.15;233265;1217;139056;-58
2022/04/07 15:00:06;;;;;;;1.90;1.00;;;;;;;19.16;38.31;96616.58;233350;1218;138698;-59
2022/04/07 15:05:10;;;;;;;;;;;;;;;19.08;38.43;96609.21;233361;1217;139075;-58
2022/04/07 15:10:13;;;;;;;2.30;0.90;;;;;;;18.98;38.41;96598.60;233297;1217;125164;-60
2022/04/07 15:15:16;;;;;;;3.40;1.00;;;;;;;18.94;38.79;96603.36;233409;1217;142180;-55
2022/04/07 15:20:21;;;;;;;1.00;0.80;;;;;;;18.90;38.33;96613.98;233231;1217;138920;-58
2022/04/07 15:25:25;;;;;;;1.90;0.70;;;;;;;18.81;38.30;96609.84;233145;1217;138974;-58
2022/04/07 15:30:28;;;;;;;3.10;0.80;;;;;;;18.74;38.47;96616.95;233163;1217;139234;-57
2022/04/07 15:35:34;;;;;;;2.00;0.90;;;;;;;18.70;38.20;96615.86;233203;1217;140625;-58
2022/04/07 15:40:37;;;;;;;1.40;0.60;;;;;;;18.63;37.96;96611.45;233508;1217;138795;-58
2022/04/07 15:45:40;;;;;;;2.50;0.90;;;;;;;18.59;38.01;96603.73;233045;1217;138870;-58
2022/04/07 15:50:43;;;;;;;2.80;0.80;;;;;;;18.55;38.00;96614.34;233228;1217;138870;-59
2022/04/07 15:55:47;;;;;;;2.00;0.80;;;;;;;18.48;38.38;96611.17;233232;1217;139365;-59
2022/04/07 16:00:50;;;;;;;2.40;1.20;;;;;;;18.45;38.10;96609.92;233334;1217;139459;-60
2022/04/07 16:05:53;;;;;;;3.30;1.30;;;;;;;18.38;38.51;96611.33;233171;1217;139048;-56
2022/04/07 16:10:56;;;;;;;1.70;0.90;;;;;;;18.30;38.40;96613.14;233361;1217;138700;-59
2022/04/07 16:15:59;;;;;;;3.70;1.10;;;;;;;18.33;38.42;96605.06;233184;1217;139170;-59
2022/04/07 16:21:03;;;;;;;5.30;1.00;;;;;;;18.54;38.78;96595.44;233389;1217;139049;-58
2022/04/07 16:26:06;;;;;;;4.00;1.20;;;;;;;18.92;38.44;96594.95;233209;1217;138612;-59
2022/04/07 16:31:09;;;;;;;6.90;1.50;;;;;;;19.00;38.02;96587.77;233156;1218;139142;-55
2022/04/07 16:36:12;;;;;;;4.10;1.20;;;;;;;18.84;37.86;96593.05;233140;1217;139609;-57
2022/04/07 16:41:15;;;;;;;2.00;1.30;;;;;;;18.66;37.85;96580.73;233276;1216;142010;-57
2022/04/07 16:46:18;;;;;;;5.40;1.50;;;;;;;18.49;38.09;96579.07;233442;1217;139040;-57
2022/04/07 16:51:21;;;;;;;3.50;1.40;;;;;;;18.34;38.19;96567.70;233172;1217;138796;-55
2022/04/07 16:56:25;;;;;;;3.00;1.30;;;;;;;18.14;38.31;96558.88;233344;1217;139129;-57
2022/04/07 17:01:28;;;;;;;2.20;1.20;;;;;;;18.02;38.15;96550.65;233316;1216;139380;-54
2022/04/07 17:06:31;;;;;;;3.60;1.30;;;;;;;17.83;38.20;96543.36;233169;1217;138929;-54
2022/04/07 17:11:44;;;;;;;3.60;1.10;;;;;;;17.64;38.68;96542.72;233257;1217;138967;-57
2022/04/07 17:16:49;;;;;;;5.40;1.50;;;;;;;17.51;38.97;96547.66;233281;1217;141423;-57
2022/04/07 17:21:52;;;;;;;2.60;1.30;;;;;;;17.41;38.99;96559.16;233232;1215;138987;-57
2022/04/07 17:26:55;;;;;;;4.60;1.40;;;;;;;17.29;38.99;96564.52;233058;1217;138931;-58
2022/04/07 17:31:58;;;;;;;6.60;1.70;;;;;;;17.22;39.01;96578.53;233267;1217;138849;-58
2022/04/07 17:37:06;;;;;;;1.90;1.40;;;;;;;17.15;39.30;96584.75;233413;1217;138815;-57
2022/04/07 17:42:17;;;;;;;3.00;1.40;;;;;;;17.12;39.27;96586.29;233426;1214;138948;-59
2022/04/07 17:47:20;;;;;;;23.70;17.60;;;;;;;17.08;39.37;96581.16;233365;1217;139165;-58
2022/04/07 17:52:26;;;;;;;7.70;3.90;;;;;;;17.09;39.73;96579.86;233314;1217;139348;-57
2022/04/07 17:57:29;;;;;;;5.00;2.00;;;;;;;17.08;39.40;96580.27;233233;1217;139134;-58
2022/04/07 18:02:32;;;;;;;3.10;1.60;;;;;;;17.05;39.25;96583.27;233133;1217;139038;-58
2022/04/07 18:07:43;;;;;;;2.90;1.80;;;;;;;17.01;39.51;96588.45;233218;1217;138693;-56
2022/04/07 18:12:46;;;;;;;3.60;1.80;;;;;;;16.94;39.45;96577.40;233250;1217;139255;-59
2022/04/07 18:17:49;;;;;;;4.40;2.10;;;;;;;16.90;39.48;96580.58;233251;1217;139237;-56
2022/04/07 18:22:53;;;;;;;3.70;1.50;;;;;;;16.86;39.27;96585.23;233261;1217;142117;-59
2022/04/07 18:27:57;;;;;;;2.90;2.00;;;;;;;16.81;39.48;96584.98;233185;1217;138880;-60
2022/04/07 18:33:00;;;;;;;2.60;1.80;;;;;;;16.77;39.38;96584.92;233227;1217;139128;-59
2022/04/07 18:38:03;;;;;;;3.20;1.80;;;;;;;16.74;39.35;96584.41;233295;1217;139194;-57
2022/04/07 18:43:06;;;;;;;4.80;1.90;;;;;;;16.71;39.45;96590.34;233035;1217;138866;-59
2022/04/07 18:48:09;;;;;;;2.90;1.70;;;;;;;16.67;39.53;96578.78;233151;1217;139818;-60
2022/04/07 18:53:19;;;;;;;127.30;107.80;;;;;;;16.63;39.72;96583.98;233388;1217;139182;-59
2022/04/07 18:58:22;;;;;;;4.80;2.50;;;;;;;16.62;39.73;96575.75;233198;1217;140362;-60
2022/04/07 19:03:26;;;;;;;3.70;1.70;;;;;;;16.60;39.61;96568.39;233177;1217;139416;-59
2022/04/07 19:08:29;;;;;;;3.80;1.70;;;;;;;16.55;39.64;96558.09;233124;1217;139121;-58
2022/04/07 19:13:32;;;;;;;104.70;80.90;;;;;;;16.51;39.61;96555.46;233103;1219;138888;-58
2022/04/07 19:18:36;;;;;;;5.40;2.90;;;;;;;16.54;39.77;96546.28;233143;1217;139108;-55
2022/04/07 19:23:39;;;;;;;5.10;2.20;;;;;;;16.55;39.60;96525.39;233325;1217;138515;-57
2022/04/07 19:28:42;;;;;;;3.40;1.70;;;;;;;16.51;39.65;96521.55;233430;1217;139202;-57
2022/04/07 19:33:51;;;;;;;6.90;1.90;;;;;;;16.48;39.69;96520.91;233120;1217;139263;-56
2022/04/07 19:38:54;;;;;;;23.80;20.40;;;;;;;16.42;39.95;96515.73;233212;1217;139211;-57
2022/04/07 19:43:57;;;;;;;10.70;4.60;;;;;;;16.39;39.76;96498.53;233222;1217;139243;-59
2022/04/07 19:49:01;;;;;;;91.00;67.00;;;;;;;16.33;40.02;96498.20;233200;1217;138826;-59
2022/04/07 19:54:04;;;;;;;4.90;2.40;;;;;;;16.34;40.00;96483.17;233264;1216;139158;-57
2022/04/07 19:59:08;;;;;;;3.00;1.80;;;;;;;16.31;40.02;96483.98;233334;1217;138870;-59
2022/04/07 20:04:11;;;;;;;2.80;1.60;;;;;;;16.25;39.93;96478.02;233436;1216;140031;-59
2022/04/07 20:09:14;;;;;;;3.80;1.60;;;;;;;16.19;40.06;96468.41;233359;1217;138852;-59
2022/04/07 20:14:17;;;;;;;3.00;1.50;;;;;;;16.13;40.10;96458.60;233188;1217;139266;-59
2022/04/07 20:19:21;;;;;;;2.90;1.30;;;;;;;16.10;40.54;96463.12;233142;1217;138704;-59
2022/04/07 20:24:24;;;;;;;3.50;1.40;;;;;;;16.06;40.41;96462.67;233280;1217;139098;-58
2022/04/07 20:29:28;;;;;;;3.20;1.40;;;;;;;16.04;40.66;96457.44;233293;1217;138847;-59
2022/04/07 20:34:31;;;;;;;4.80;1.30;;;;;;;15.96;40.66;96449.13;233363;1217;138854;-58
2022/04/07 20:39:38;;;;;;;2.20;1.00;;;;;;;15.95;40.78;96464.84;233143;1217;139371;-60
2022/04/07 20:44:41;;;;;;;5.50;1.20;;;;;;;15.94;40.60;96454.23;233360;1217;139629;-59
2022/04/07 20:49:44;;;;;;;7.40;1.10;;;;;;;15.92;40.72;96451.54;233385;1217;139096;-59
2022/04/07 20:54:47;;;;;;;1.60;0.90;;;;;;;15.94;40.75;96465.36;233245;1217;138975;-58
2022/04/07 20:59:50;;;;;;;2.10;1.10;;;;;;;15.95;40.72;96460.63;233303;1217;138544;-58
2022/04/07 21:04:53;;;;;;;1.90;1.00;;;;;;;15.95;40.85;96475.70;233481;1217;138710;-57
2022/04/07 21:09:56;;;;;;;3.00;1.10;;;;;;;15.93;40.86;96481.13;233263;1217;139963;-58
2022/04/07 21:14:59;;;;;;;2.40;1.20;;;;;;;15.93;40.80;96491.34;233328;1217;139488;-58
2022/04/07 21:20:06;;;;;;;2.60;1.20;;;;;;;15.92;40.71;96476.23;233446;1217;162879;-59
2022/04/07 21:25:10;;;;;;;2.80;1.00;;;;;;;15.87;40.73;96467.29;233211;1217;138734;-58
2022/04/07 21:30:12;;;;;;;4.70;1.10;;;;;;;15.88;40.89;96481.11;233193;1217;139248;-58
2022/04/07 21:35:15;;;;;;;3.20;0.90;;;;;;;15.85;40.98;96469.98;233430;1218;138908;-58
2022/04/07 21:40:18;;;;;;;5.50;1.00;;;;;;;15.82;41.00;96487.11;233417;1217;139617;-56
2022/04/07 21:45:22;;;;;;;1.60;0.70;;;;;;;15.82;41.19;96508.00;233280;1217;139427;-58
2022/04/07 21:50:25;;;;;;;3.50;0.90;;;;;;;15.78;41.32;96492.98;233334;1217;138806;-58
2022/04/07 21:55:28;;;;;;;2.10;0.80;;;;;;;15.74;41.31;96518.36;233410;1217;139088;-58
2022/04/07 22:00:44;;;;;;;1.90;0.80;;;;;;;15.71;41.27;96516.58;233280;1217;138606;-61
2022/04/07 22:05:48;;;;;;;2.20;0.80;;;;;;;15.69;41.64;96519.00;233342;1217;139523;-59
2022/04/07 22:10:51;;;;;;;1.30;0.90;;;;;;;15.65;41.58;96524.47;233585;1217;138981;-59
2022/04/07 22:15:54;;;;;;;3.30;0.90;;;;;;;15.64;41.87;96530.00;233332;1216;139016;-58
2022/04/07 22:20:57;;;;;;;2.70;0.80;;;;;;;15.58;42.44;96519.38;233367;1217;139070;-59
2022/04/07 22:26:00;;;;;;;1.60;0.70;;;;;;;15.48;42.75;96502.39;233329;1218;138675;-59
2022/04/07 22:31:05;;;;;;;2.90;0.70;;;;;;;15.39;42.97;96494.21;233291;1217;138979;-56
2022/04/07 22:36:08;;;;;;;1.20;0.60;;;;;;;15.30;43.17;96494.52;233402;1217;138805;-57
2022/04/07 22:41:31;;;;;;;1.30;0.40;;;;;;;15.22;43.42;96487.92;233435;1217;138995;-58
2022/04/07 22:46:34;;;;;;;1.10;0.70;;;;;;;15.21;43.58;96495.88;233318;1217;138729;-58
2022/04/07 22:51:41;;;;;;;2.00;0.60;;;;;;;15.16;43.70;96500.41;233242;1217;138694;-56
2022/04/07 22:56:44;;;;;;;0.70;0.60;;;;;;;15.11;43.85;96506.52;233407;1217;140287;-58
2022/04/07 23:01:47;;;;;;;0.80;0.40;;;;;;;15.05;44.23;96523.16;233353;1217;139151;-59
2022/04/07 23:06:51;;;;;;;3.50;0.60;;;;;;;14.92;44.53;96531.99;233355;1217;139833;-59
2022/04/07 23:11:54;;;;;;;2.90;0.70;;;;;;;14.79;44.81;96501.73;233320;1217;139167;-57
2022/04/07 23:16:57;;;;;;;1.50;0.60;;;;;;;14.73;45.20;96501.82;233477;1217;140223;-57